createdAt,value
2023-04-02T00:02:09.053Z,98933.00
2023-04-02T00:04:38.194Z,98933.04
2023-04-02T00:07:30.989Z,98937.69
2023-04-02T00:09:59.381Z,98938.79
2023-04-02T00:12:29.203Z,98936.39
2023-04-02T00:16:25.120Z,98948.02
2023-04-02T00:18:58.235Z,98945.61
2023-04-02T00:21:33.735Z,98945.16
2023-04-02T00:24:03.127Z,98948.23
2023-04-02T00:26:36.891Z,98942.35
2023-04-02T00:29:05.834Z,98944.92
2023-04-02T00:31:38.283Z,98944.23
2023-04-02T00:34:07.543Z,98943.68
2023-04-02T00:36:35.506Z,98946.23
2023-04-02T00:39:11.165Z,98943.77
2023-04-02T00:41:46.712Z,98938.71
2023-04-02T00:44:16.519Z,98937.13
2023-04-02T00:46:49.662Z,98940.79
2023-04-02T00:49:23.985Z,98942.94
2023-04-02T00:51:58.084Z,98940.40
2023-04-02T00:54:27.747Z,98944.80
2023-04-02T00:56:56.475Z,98943.39
2023-04-02T00:59:33.525Z,98951.04
2023-04-02T01:02:19.878Z,98951.20
2023-04-02T01:05:02.333Z,98951.43
2023-04-02T01:07:52.670Z,98953.96
2023-04-02T01:10:30.365Z,98953.23
2023-04-02T01:13:08.429Z,98953.98
2023-04-02T01:15:42.159Z,98956.04
2023-04-02T01:18:13.987Z,98956.05
2023-04-02T01:21:12.987Z,98957.29
2023-04-02T01:23:48.018Z,98958.23
2023-04-02T01:26:39.730Z,98960.48
2023-04-02T01:29:14.091Z,98955.46
2023-04-02T01:31:42.496Z,98955.97
2023-04-02T01:34:13.977Z,98961.14
2023-04-02T01:37:01.840Z,98957.79
2023-04-02T01:39:42.126Z,98960.03
2023-04-02T01:42:29.118Z,98957.38
2023-04-02T01:45:14.820Z,98955.71
2023-04-02T01:47:43.999Z,98954.20
2023-04-02T01:50:21.268Z,98956.08
2023-04-02T01:52:55.489Z,98955.96
2023-04-02T01:55:31.370Z,98954.52
2023-04-02T01:58:01.288Z,98955.84
2023-04-02T02:00:30.450Z,98955.27
2023-04-02T02:03:00.098Z,98955.23
2023-04-02T02:05:28.333Z,98958.08
2023-04-02T02:07:57.334Z,98954.23
2023-04-02T02:10:34.358Z,98956.00
2023-04-02T02:13:02.416Z,98960.87
2023-04-02T02:15:32.134Z,98957.88
2023-04-02T02:18:03.230Z,98956.80
2023-04-02T02:20:31.326Z,98960.23
2023-04-02T02:23:01.119Z,98961.09
2023-04-02T02:25:31.924Z,98961.03
2023-04-02T02:28:08.652Z,98960.30
2023-04-02T02:30:57.382Z,98958.79
2023-04-02T02:33:45.118Z,98961.41
2023-04-02T02:36:20.796Z,98957.84
2023-04-02T02:38:58.070Z,98962.95
2023-04-02T02:41:54.670Z,98959.15
2023-04-02T02:44:27.706Z,98961.38
2023-04-02T02:47:14.457Z,98962.44
2023-04-02T02:49:45.105Z,98964.13
2023-04-02T02:52:20.693Z,98966.84
2023-04-02T02:55:15.584Z,98967.70
2023-04-02T02:58:06.907Z,98963.95
2023-04-02T03:00:40.804Z,98960.70
2023-04-02T03:03:12.518Z,98964.47
2023-04-02T03:05:41.438Z,98962.99
2023-04-02T03:08:19.414Z,98970.55
2023-04-02T03:10:59.004Z,98968.27
2023-04-02T03:13:33.408Z,98970.17
2023-04-02T03:16:11.568Z,98974.24
2023-04-02T03:18:47.984Z,98973.65
2023-04-02T03:21:24.862Z,98975.20
2023-04-02T03:24:05.224Z,98977.53
2023-04-02T03:26:38.679Z,98981.45
2023-04-02T03:29:28.000Z,98981.48
2023-04-02T03:32:16.834Z,98984.55
2023-04-02T03:35:01.197Z,98986.70
2023-04-02T03:37:33.070Z,98989.02
2023-04-02T03:40:08.952Z,98989.98
2023-04-02T03:42:46.510Z,98990.58
2023-04-02T03:45:26.868Z,98991.28
2023-04-02T03:48:05.979Z,98992.58
2023-04-02T03:50:46.431Z,98994.99
2023-04-02T03:53:15.452Z,98999.91
2023-04-02T03:55:44.655Z,99002.22
2023-04-02T03:58:16.640Z,99002.79
2023-04-02T04:01:04.345Z,99007.39
2023-04-02T04:03:37.034Z,99008.52
2023-04-02T04:06:12.272Z,99009.30
2023-04-02T04:08:56.118Z,99011.12
2023-04-02T04:11:31.387Z,99012.11
2023-04-02T04:14:21.062Z,99015.45
2023-04-02T04:17:04.870Z,99016.41
2023-04-02T04:19:45.544Z,99017.27
2023-04-02T04:22:17.944Z,99018.89
2023-04-02T04:24:47.738Z,99025.55
2023-04-02T04:27:42.929Z,99022.71
2023-04-02T04:30:24.539Z,99028.48
2023-04-02T04:32:58.377Z,99031.61
2023-04-02T04:35:29.785Z,99031.55
2023-04-02T04:38:04.907Z,99030.90
2023-04-02T04:40:38.133Z,99038.10
2023-04-02T04:43:08.140Z,99033.75
2023-04-02T04:45:50.799Z,99035.48
2023-04-02T04:48:26.909Z,99039.38
2023-04-02T04:51:09.407Z,99045.27
2023-04-02T04:53:47.908Z,99041.23
2023-04-02T04:56:23.655Z,99044.81
2023-04-02T04:59:02.781Z,99040.89
2023-04-02T05:01:38.452Z,99040.45
2023-04-02T05:04:30.317Z,99042.64
2023-04-02T05:07:19.347Z,99043.38
2023-04-02T05:10:17.320Z,99050.45
2023-04-02T05:12:51.131Z,99048.96
2023-04-02T05:15:53.314Z,99050.80
2023-04-02T05:18:37.533Z,99055.58
2023-04-02T05:21:21.123Z,99051.50
2023-04-02T05:24:01.642Z,99049.64
2023-04-02T05:26:32.886Z,99054.05
2023-04-02T05:29:36.759Z,99051.64
2023-04-02T05:32:17.519Z,99056.19
2023-04-02T05:34:51.713Z,99057.10
2023-04-02T05:37:21.696Z,99058.45
2023-04-02T05:39:55.891Z,99060.36
2023-04-02T05:42:27.972Z,99059.59
2023-04-02T05:45:39.152Z,99060.59
2023-04-02T05:48:18.908Z,99059.96
2023-04-02T05:50:52.018Z,99061.79
2023-04-02T05:53:34.878Z,99062.47
2023-04-02T05:56:11.915Z,99058.21
2023-04-02T05:58:46.500Z,99062.70
2023-04-02T06:01:41.308Z,99063.29
2023-04-02T06:04:21.096Z,99066.58
2023-04-02T06:07:14.796Z,99065.58
2023-04-02T06:10:08.666Z,99068.83
2023-04-02T06:12:48.991Z,99072.30
2023-04-02T06:15:21.645Z,99073.98
2023-04-02T06:17:52.642Z,99077.75
2023-04-02T06:20:21.479Z,99077.66
2023-04-02T06:22:52.009Z,99083.50
2023-04-02T06:25:40.154Z,99084.36
2023-04-02T06:28:19.039Z,99086.41
2023-04-02T06:30:54.502Z,99085.45
2023-04-02T06:33:25.126Z,99091.42
2023-04-02T06:35:54.466Z,99090.70
2023-04-02T06:38:32.881Z,99094.57
2023-04-02T06:41:05.752Z,99094.45
2023-04-02T06:43:53.703Z,99095.62
2023-04-02T06:46:51.761Z,99096.39
2023-04-02T06:49:26.144Z,99100.98
2023-04-02T06:52:00.889Z,99098.12
2023-04-02T06:54:30.518Z,99097.04
2023-04-02T06:57:02.812Z,99096.59
2023-04-02T06:59:38.062Z,99099.80
2023-04-02T07:02:30.993Z,99101.10
2023-04-02T07:05:04.294Z,99106.98
2023-04-02T07:07:34.148Z,99112.95
2023-04-02T07:10:06.065Z,99111.80
2023-04-02T07:12:34.165Z,99112.42
2023-04-02T07:15:05.398Z,99116.17
2023-04-02T07:17:33.961Z,99114.80
2023-04-02T07:20:02.039Z,99116.83
2023-04-02T07:22:30.931Z,99116.78
2023-04-02T07:25:02.227Z,99119.70
2023-04-02T07:27:33.910Z,99123.75
2023-04-02T07:30:01.951Z,99125.80
2023-04-02T07:32:31.940Z,99127.88
2023-04-02T07:35:00.486Z,99128.92
2023-04-02T07:37:29.448Z,99131.00
2023-04-02T07:39:59.374Z,99130.58
2023-04-02T07:42:29.710Z,99131.89
2023-04-02T07:44:57.646Z,99133.00
2023-04-02T07:47:25.863Z,99128.46
2023-04-02T07:49:54.649Z,99131.29
2023-04-02T07:52:23.039Z,99129.38
2023-04-02T07:54:51.882Z,99130.77
2023-04-02T07:57:20.949Z,99131.35
2023-04-02T07:59:49.254Z,99131.45
2023-04-02T08:02:21.305Z,99133.94
2023-04-02T08:04:51.183Z,99131.69
2023-04-02T08:07:19.658Z,99134.89
2023-04-02T08:09:47.669Z,99135.91
2023-04-02T08:12:17.024Z,99136.09
2023-04-02T08:14:45.956Z,99138.04
2023-04-02T08:17:13.919Z,99138.71
2023-04-02T08:19:54.211Z,99140.88
2023-04-02T08:22:23.326Z,99140.88
2023-04-02T08:24:51.847Z,99142.65
2023-04-02T08:27:19.995Z,99140.21
2023-04-02T08:29:48.065Z,99141.81
2023-04-02T08:32:16.855Z,99144.27
2023-04-02T08:34:45.530Z,99145.89
2023-04-02T08:37:13.708Z,99145.80
2023-04-02T08:39:42.097Z,99148.41
2023-04-02T08:42:22.223Z,99146.02
2023-04-02T08:45:25.150Z,99147.55
2023-04-02T08:47:56.237Z,99149.49
2023-04-02T08:50:36.451Z,99150.00
2023-04-02T08:53:31.862Z,99154.48
2023-04-02T08:56:10.024Z,99156.90
2023-04-02T08:58:43.080Z,99156.07
2023-04-02T09:01:36.885Z,99160.04
2023-04-02T09:04:07.367Z,99160.89
2023-04-02T09:06:38.538Z,99165.85
2023-04-02T09:09:09.116Z,99166.05
2023-04-02T09:11:49.254Z,99173.64
2023-04-02T09:14:22.995Z,99169.45
2023-04-02T09:16:56.053Z,99176.46
2023-04-02T09:19:36.688Z,99178.73
2023-04-02T09:22:20.878Z,99177.04
2023-04-02T09:24:53.505Z,99176.50
2023-04-02T09:27:29.727Z,99174.59
2023-04-02T09:30:03.452Z,99176.79
2023-04-02T09:32:51.388Z,99184.66
2023-04-02T09:35:27.644Z,99185.11
2023-04-02T09:38:19.638Z,99189.58
2023-04-02T09:40:55.319Z,99188.26
2023-04-02T09:43:34.770Z,99191.54
2023-04-02T09:46:14.180Z,99193.09
2023-04-02T09:49:03.048Z,99187.89
2023-04-02T09:51:34.471Z,99195.63
2023-04-02T09:54:06.078Z,99198.66
2023-04-02T09:56:37.400Z,99197.00
2023-04-02T09:59:16.830Z,99199.89
2023-04-02T10:01:48.145Z,99200.16
2023-04-02T10:04:45.516Z,99200.14
2023-04-02T10:07:40.070Z,99199.46
2023-04-02T10:10:32.173Z,99202.00
2023-04-02T10:13:13.523Z,99201.05
2023-04-02T10:15:58.761Z,99202.91
2023-04-02T10:18:38.877Z,99202.30
2023-04-02T10:21:07.149Z,99204.63
2023-04-02T10:23:36.329Z,99205.44
2023-04-02T10:26:04.283Z,99208.95
2023-04-02T10:29:01.239Z,99213.88
2023-04-02T10:31:58.050Z,99217.27
2023-04-02T10:34:43.713Z,99218.27
2023-04-02T10:37:39.597Z,99221.45
2023-04-02T10:40:32.682Z,99223.46
2023-04-02T10:43:38.956Z,99224.20
2023-04-02T10:46:16.567Z,99221.27
2023-04-02T10:49:10.929Z,99221.08
2023-04-02T10:51:48.883Z,99219.95
2023-04-02T10:54:45.596Z,99223.42
2023-04-02T10:57:16.965Z,99223.63
2023-04-02T10:59:49.908Z,99225.69
2023-04-02T11:02:29.809Z,99225.95
2023-04-02T11:04:59.843Z,99226.20
2023-04-02T11:07:31.354Z,99226.17
2023-04-02T11:09:59.630Z,99226.81
2023-04-02T11:12:42.215Z,99224.23
2023-04-02T11:15:18.584Z,99221.95
2023-04-02T11:17:46.822Z,99219.91
2023-04-02T11:20:57.669Z,99221.43
2023-04-02T11:23:28.082Z,99221.69
2023-04-02T11:26:38.379Z,99223.48
2023-04-02T11:29:15.823Z,99225.45
2023-04-02T11:31:44.199Z,99229.17
2023-04-02T11:34:41.803Z,99228.70
2023-04-02T11:37:11.068Z,99234.67
2023-04-02T11:39:47.267Z,99232.93
2023-04-02T11:42:18.172Z,99232.23
2023-04-02T11:44:46.329Z,99236.48
2023-04-02T11:47:19.424Z,99235.62
2023-04-02T11:50:01.444Z,99234.48
2023-04-02T11:53:06.960Z,99238.59
2023-04-02T11:55:40.573Z,99238.84
2023-04-02T11:58:26.965Z,99238.73
2023-04-02T12:01:01.292Z,99239.90
2023-04-02T12:03:46.349Z,99241.28
2023-04-02T12:06:28.143Z,99242.13
2023-04-02T12:09:18.942Z,99238.71
2023-04-02T12:11:47.613Z,99243.27
2023-04-02T12:14:38.267Z,99242.85
2023-04-02T12:17:18.394Z,99237.73
2023-04-02T12:19:50.376Z,99241.54
2023-04-02T12:22:20.960Z,99242.52
2023-04-02T12:24:50.356Z,99244.30
2023-04-02T12:27:22.852Z,99245.31
2023-04-02T12:29:52.697Z,99247.69
2023-04-02T12:33:23.220Z,99264.44
2023-04-02T12:35:55.577Z,99258.66
2023-04-02T12:38:33.923Z,99254.52
2023-04-02T12:41:04.497Z,99255.60
2023-04-02T12:43:34.500Z,99254.98
2023-04-02T12:46:04.880Z,99253.27
2023-04-02T12:48:33.815Z,99255.65
2023-04-02T12:51:02.825Z,99260.15
2023-04-02T12:53:35.493Z,99258.17
2023-04-02T12:56:04.595Z,99255.20
2023-04-02T12:58:40.872Z,99257.95
2023-04-02T13:01:28.983Z,99257.83
2023-04-02T13:04:04.606Z,99260.27
2023-04-02T13:06:34.722Z,99257.40
2023-04-02T13:09:05.128Z,99260.77
2023-04-02T13:11:39.840Z,99257.19
2023-04-02T13:14:16.816Z,99251.00
2023-04-02T13:16:47.058Z,99254.68
2023-04-02T13:19:34.234Z,99253.35
2023-04-02T13:22:02.970Z,99252.02
2023-04-02T13:24:32.639Z,99249.73
2023-04-02T13:27:02.547Z,99247.97
2023-04-02T13:29:32.599Z,99251.91
2023-04-02T13:32:06.540Z,99252.77
2023-04-02T13:34:34.749Z,99251.27
2023-04-02T13:37:03.648Z,99253.36
2023-04-02T13:39:32.976Z,99251.08
2023-04-02T13:42:02.895Z,99253.32
2023-04-02T13:44:32.803Z,99252.80
2023-04-02T13:47:01.388Z,99252.99
2023-04-02T13:49:29.774Z,99255.56
2023-04-02T13:52:04.296Z,99254.44
2023-04-02T13:54:44.237Z,99253.38
2023-04-02T13:57:12.388Z,99256.61
2023-04-02T13:59:40.522Z,99254.08
2023-04-02T14:02:11.412Z,99261.30
2023-04-02T14:04:43.373Z,99255.41
2023-04-02T14:07:36.706Z,99257.66
2023-04-02T14:10:40.604Z,99261.65
2023-04-02T14:13:30.198Z,99259.73
2023-04-02T14:16:28.798Z,99258.91
2023-04-02T14:19:10.215Z,99258.45
2023-04-02T14:21:41.576Z,99259.98
2023-04-02T14:24:17.299Z,99262.03
2023-04-02T14:27:04.372Z,99261.62
2023-04-02T14:29:38.451Z,99260.65
2023-04-02T14:32:09.850Z,99265.09
2023-04-02T14:34:54.574Z,99268.29
2023-04-02T14:37:42.088Z,99266.11
2023-04-02T14:40:27.468Z,99268.52
2023-04-02T14:43:17.028Z,99266.36
2023-04-02T14:46:01.720Z,99269.40
2023-04-02T14:48:50.388Z,99270.58
2023-04-02T14:51:41.782Z,99267.45
2023-04-02T14:54:31.961Z,99268.17
2023-04-02T14:57:18.778Z,99270.23
2023-04-02T15:00:05.709Z,99268.34
2023-04-02T15:03:10.606Z,99274.25
2023-04-02T15:05:49.844Z,99268.27
2023-04-02T15:08:27.381Z,99265.42
2023-04-02T15:11:08.706Z,99276.23
2023-04-02T15:13:38.433Z,99275.87
2023-04-02T15:16:26.793Z,99275.96
2023-04-02T15:18:56.690Z,99278.63
2023-04-02T15:21:55.842Z,99275.98
2023-04-02T15:24:40.701Z,99281.77
2023-04-02T15:27:25.100Z,99281.23
2023-04-02T15:30:09.158Z,99282.23
2023-04-02T15:32:39.783Z,99283.33
2023-04-02T15:35:27.525Z,99283.96
2023-04-02T15:38:02.193Z,99283.71
2023-04-02T15:41:07.195Z,99282.59
2023-04-02T15:43:48.675Z,99280.91
2023-04-02T15:46:41.746Z,99280.34
2023-04-02T15:49:25.246Z,99286.23
2023-04-02T15:52:18.355Z,99286.00
2023-04-02T15:54:54.662Z,99284.23
2023-04-02T15:57:39.406Z,99289.11
2023-04-02T16:00:31.269Z,99285.69
2023-04-02T16:03:42.467Z,99283.49
2023-04-02T16:06:28.042Z,99290.02
2023-04-02T16:09:07.696Z,99291.81
2023-04-02T16:11:36.801Z,99288.73
2023-04-02T16:14:12.048Z,99292.30
2023-04-02T16:16:40.072Z,99292.31
2023-04-02T16:19:27.553Z,99293.20
2023-04-02T16:22:24.578Z,99296.61
2023-04-02T16:25:02.187Z,99299.58
2023-04-02T16:27:43.144Z,99298.30
2023-04-02T16:30:27.935Z,99299.98
2023-04-02T16:33:03.026Z,99298.31
2023-04-02T16:36:14.067Z,99300.79
2023-04-02T16:38:58.908Z,99304.09
2023-04-02T16:41:40.582Z,99305.83
2023-04-02T16:44:26.931Z,99307.85
2023-04-02T16:47:04.357Z,99313.51
2023-04-02T16:49:38.696Z,99312.74
2023-04-02T16:52:39.582Z,99315.90
2023-04-02T16:55:19.671Z,99320.45
2023-04-02T16:58:18.064Z,99320.94
2023-04-02T17:01:08.632Z,99326.25
2023-04-02T17:03:46.496Z,99328.09
2023-04-02T17:06:27.647Z,99329.89
2023-04-02T17:08:58.605Z,99334.88
2023-04-02T17:11:31.673Z,99336.05
2023-04-02T17:14:27.218Z,99335.50
2023-04-02T17:16:59.278Z,99335.98
2023-04-02T17:19:27.403Z,99340.30
2023-04-02T17:22:01.096Z,99338.27
2023-04-02T17:24:47.924Z,99343.15
2023-04-02T17:27:27.306Z,99348.71
2023-04-02T17:30:05.494Z,99346.61
2023-04-02T17:32:35.082Z,99350.14
2023-04-02T17:35:25.310Z,99352.69
2023-04-02T17:38:20.373Z,99355.07
2023-04-02T17:40:58.580Z,99356.27
2023-04-02T17:43:44.732Z,99361.12
2023-04-02T17:46:34.792Z,99357.39
2023-04-02T17:49:07.479Z,99358.56
2023-04-02T17:51:39.941Z,99359.32
2023-04-02T17:54:21.727Z,99359.15
2023-04-02T17:57:05.006Z,99361.94
2023-04-02T17:59:42.771Z,99361.86
2023-04-02T18:02:26.410Z,99360.29
2023-04-02T18:05:09.996Z,99362.09
2023-04-02T18:08:18.399Z,99360.78
2023-04-02T18:11:09.353Z,99364.66
2023-04-02T18:13:59.721Z,99365.25
2023-04-02T18:16:32.523Z,99364.77
2023-04-02T18:19:03.975Z,99364.73
2023-04-02T18:22:17.544Z,99365.82
2023-04-02T18:25:14.973Z,99367.16
2023-04-02T18:28:24.740Z,99367.98
2023-04-02T18:31:03.779Z,99363.49
2023-04-02T18:33:55.407Z,99366.63
2023-04-02T18:36:26.574Z,99367.41
2023-04-02T18:39:06.468Z,99368.59
2023-04-02T18:42:04.575Z,99369.48
2023-04-02T18:44:42.937Z,99368.98
2023-04-02T18:47:23.247Z,99369.48
2023-04-02T18:49:54.272Z,99367.67
2023-04-02T18:52:23.242Z,99367.70
2023-04-02T18:55:00.529Z,99367.04
2023-04-02T18:57:31.384Z,99369.11
2023-04-02T19:00:12.520Z,99366.77
2023-04-02T19:02:47.225Z,99370.83
2023-04-02T19:05:20.631Z,99367.38
2023-04-02T19:07:54.490Z,99366.73
2023-04-02T19:10:37.383Z,99371.55
2023-04-02T19:13:17.298Z,99366.85
2023-04-02T19:15:59.416Z,99367.89
2023-04-02T19:18:34.475Z,99369.34
2023-04-02T19:21:17.124Z,99367.48
2023-04-02T19:24:00.067Z,99369.52
2023-04-02T19:26:51.420Z,99371.57
2023-04-02T19:29:23.812Z,99372.11
2023-04-02T19:32:29.946Z,99379.26
2023-04-02T19:35:17.376Z,99375.78
2023-04-02T19:38:07.127Z,99374.73
2023-04-02T19:40:48.460Z,99378.33
2023-04-02T19:43:17.638Z,99382.77
2023-04-02T19:45:49.211Z,99384.46
2023-04-02T19:48:23.183Z,99380.64
2023-04-02T19:50:51.636Z,99383.36
2023-04-02T19:53:20.377Z,99382.60
2023-04-02T19:55:48.744Z,99380.29
2023-04-02T19:58:28.405Z,99382.04
2023-04-02T20:00:56.912Z,99381.45
2023-04-02T20:03:25.766Z,99380.58
2023-04-02T20:05:57.929Z,99381.56
2023-04-02T20:08:28.035Z,99384.73
2023-04-02T20:10:58.990Z,99381.83
2023-04-02T20:13:26.966Z,99383.66
2023-04-02T20:15:59.022Z,99381.83
2023-04-02T20:18:27.793Z,99380.85
2023-04-02T20:21:06.091Z,99373.32
2023-04-02T20:23:35.940Z,99376.32
2023-04-02T20:26:04.179Z,99378.20
2023-04-02T20:28:33.230Z,99378.59
2023-04-02T20:31:11.702Z,99377.42
2023-04-02T20:33:40.282Z,99379.48
2023-04-02T20:36:11.564Z,99376.36
2023-04-02T20:38:39.907Z,99377.16
2023-04-02T20:41:08.321Z,99376.14
2023-04-02T20:43:37.720Z,99376.02
2023-04-02T20:46:08.337Z,99379.05
2023-04-02T20:48:38.419Z,99375.63
2023-04-02T20:51:09.990Z,99379.66
2023-04-02T20:53:38.550Z,99380.53
2023-04-02T20:56:08.224Z,99377.37
2023-04-02T20:58:37.338Z,99379.31
2023-04-02T21:01:23.258Z,99376.45
2023-04-02T21:04:02.258Z,99375.76
2023-04-02T21:06:32.613Z,99381.74
2023-04-02T21:09:07.726Z,99377.47
2023-04-02T21:11:37.321Z,99382.46
2023-04-02T21:14:05.551Z,99380.71
2023-04-02T21:16:33.957Z,99380.30
2023-04-02T21:19:07.043Z,99378.70
2023-04-02T21:21:36.337Z,99377.47
2023-04-02T21:24:08.709Z,99378.84
2023-04-02T21:26:38.763Z,99377.98
2023-04-02T21:29:06.917Z,99379.96
2023-04-02T21:31:37.431Z,99377.86
2023-04-02T21:34:06.560Z,99376.00
2023-04-02T21:36:40.679Z,99371.55
2023-04-02T21:39:10.573Z,99371.58
2023-04-02T21:41:40.431Z,99376.77
2023-04-02T21:44:10.709Z,99375.09
2023-04-02T21:46:39.295Z,99369.69
2023-04-02T21:49:08.525Z,99372.23
2023-04-02T21:51:37.649Z,99369.97
2023-04-02T21:54:07.697Z,99369.88
2023-04-02T21:56:39.437Z,99367.59
2023-04-02T21:59:08.469Z,99362.83
2023-04-02T22:01:38.608Z,99363.13
2023-04-02T22:04:08.791Z,99363.77
2023-04-02T22:06:40.693Z,99366.60
2023-04-02T22:09:10.732Z,99367.48
2023-04-02T22:11:44.812Z,99368.55
2023-04-02T22:14:13.040Z,99367.95
2023-04-02T22:16:41.719Z,99368.47
2023-04-02T22:19:13.686Z,99367.90
2023-04-02T22:21:41.984Z,99365.87
2023-04-02T22:24:18.883Z,99368.36
2023-04-02T22:26:47.051Z,99370.81
2023-04-02T22:29:15.833Z,99368.98
2023-04-02T22:31:44.012Z,99368.46
2023-04-02T22:34:12.970Z,99369.06
2023-04-02T22:36:41.410Z,99370.93
2023-04-02T22:39:12.135Z,99368.54
2023-04-02T22:41:41.065Z,99366.74
2023-04-02T22:44:12.846Z,99365.67
2023-04-02T22:46:41.647Z,99362.84
2023-04-02T22:49:11.796Z,99364.36
2023-04-02T22:51:40.135Z,99366.87
2023-04-02T22:54:08.929Z,99361.91
2023-04-02T22:56:37.689Z,99361.11
2023-04-02T22:59:06.714Z,99364.23
2023-04-02T23:01:35.770Z,99361.67
2023-04-02T23:04:05.607Z,99356.89
2023-04-02T23:06:35.049Z,99356.71
2023-04-02T23:09:04.191Z,99357.12
2023-04-02T23:11:34.957Z,99352.95
2023-04-02T23:14:03.243Z,99352.23
2023-04-02T23:16:31.544Z,99353.77
2023-04-02T23:19:01.308Z,99352.41
2023-04-02T23:21:30.157Z,99347.88
2023-04-02T23:23:58.792Z,99345.39
2023-04-02T23:26:31.434Z,99346.58
2023-04-02T23:28:59.747Z,99349.67
2023-04-02T23:31:27.962Z,99345.52
2023-04-02T23:33:56.491Z,99345.98
2023-04-02T23:36:29.156Z,99347.91
2023-04-02T23:39:01.350Z,99349.77
2023-04-02T23:41:30.566Z,99347.48
2023-04-02T23:43:58.918Z,99347.86
2023-04-02T23:46:27.216Z,99348.38
2023-04-02T23:48:56.282Z,99346.16
2023-04-02T23:51:24.688Z,99346.39
2023-04-02T23:53:53.428Z,99340.04
2023-04-02T23:56:23.076Z,99337.85
2023-04-02T23:58:51.547Z,99339.29
